createdAt,value
2018-03-30T00:00:37.807Z,75.13
2018-03-30T00:01:37.820Z,75.60
2018-03-30T00:02:37.792Z,75.79
2018-03-30T00:03:37.769Z,76.27
2018-03-30T00:04:37.758Z,75.89
2018-03-30T00:05:37.773Z,75.42
2018-03-30T00:06:37.745Z,75.70
2018-03-30T00:07:37.720Z,76.08
2018-03-30T00:08:37.758Z,75.79
2018-03-30T00:09:37.697Z,75.60
2018-03-30T00:10:37.689Z,76.27
2018-03-30T00:11:37.684Z,76.08
2018-03-30T00:12:37.682Z,76.27
2018-03-30T00:13:37.648Z,76.18
2018-03-30T00:14:37.654Z,75.99
2018-03-30T00:15:37.622Z,75.79
2018-03-30T00:16:37.610Z,76.08
2018-03-30T00:17:37.625Z,75.99
2018-03-30T00:18:37.589Z,76.27
2018-03-30T00:19:37.575Z,76.18
2018-03-30T00:20:37.561Z,75.60
2018-03-30T00:21:37.550Z,75.79
2018-03-30T00:22:37.544Z,75.99
2018-03-30T00:23:37.547Z,75.60
2018-03-30T00:24:37.513Z,75.99
2018-03-30T00:25:37.501Z,75.60
2018-03-30T00:26:37.490Z,76.27
2018-03-30T00:27:37.476Z,75.89
2018-03-30T00:28:37.464Z,75.70
2018-03-30T00:29:37.452Z,75.70
2018-03-30T00:30:37.440Z,75.60
2018-03-30T00:31:37.428Z,75.60
2018-03-30T00:32:37.416Z,75.70
2018-03-30T00:33:37.413Z,75.79
2018-03-30T00:34:37.451Z,75.93
2018-03-30T00:35:37.380Z,75.79
2018-03-30T00:36:37.379Z,75.60
2018-03-30T00:37:37.382Z,75.89
2018-03-30T00:38:37.349Z,75.89
2018-03-30T00:39:37.379Z,76.08
2018-03-30T00:40:37.369Z,76.12
2018-03-30T00:41:37.311Z,76.18
2018-03-30T00:42:37.294Z,76.21
2018-03-30T00:43:37.293Z,75.70
2018-03-30T00:44:37.269Z,75.64
2018-03-30T00:45:37.257Z,75.45
2018-03-30T00:46:37.248Z,75.36
2018-03-30T00:47:37.232Z,75.84
2018-03-30T00:48:37.220Z,76.50
2018-03-30T00:49:37.237Z,75.64
2018-03-30T00:50:37.197Z,75.74
2018-03-30T00:51:37.183Z,75.84
2018-03-30T00:52:37.173Z,75.84
2018-03-30T00:53:37.158Z,76.12
2018-03-30T00:54:37.152Z,76.21
2018-03-30T00:55:37.154Z,76.12
2018-03-30T00:56:37.122Z,76.12
2018-03-30T00:57:37.111Z,75.93
2018-03-30T00:58:37.098Z,75.93
2018-03-30T00:59:37.086Z,75.93
2018-03-30T01:00:37.073Z,75.84
2018-03-30T01:01:37.062Z,75.93
2018-03-30T01:02:37.050Z,75.55
2018-03-30T01:03:37.037Z,75.74
2018-03-30T01:04:37.025Z,75.64
2018-03-30T01:05:37.014Z,75.84
2018-03-30T01:06:37.009Z,76.03
2018-03-30T01:07:36.988Z,76.21
2018-03-30T01:08:37.016Z,75.55
2018-03-30T01:09:36.965Z,76.03
2018-03-30T01:10:36.961Z,76.31
2018-03-30T01:11:36.999Z,76.03
2018-03-30T01:12:36.929Z,76.21
2018-03-30T01:13:36.916Z,75.84
2018-03-30T01:14:36.929Z,75.93
2018-03-30T01:15:36.891Z,75.74
2018-03-30T01:16:36.880Z,76.12
2018-03-30T01:17:36.871Z,75.64
2018-03-30T01:18:36.856Z,76.31
2018-03-30T01:19:36.846Z,76.03
2018-03-30T01:20:36.837Z,76.88
2018-03-30T01:21:36.831Z,76.40
2018-03-30T01:22:36.820Z,76.31
2018-03-30T01:23:36.800Z,76.56
2018-03-30T01:24:36.783Z,76.59
2018-03-30T01:25:36.773Z,76.56
2018-03-30T01:26:36.760Z,76.59
2018-03-30T01:27:36.748Z,76.31
2018-03-30T01:28:36.735Z,76.31
2018-03-30T01:29:36.731Z,76.21
2018-03-30T01:30:36.712Z,76.69
2018-03-30T01:31:36.699Z,76.50
2018-03-30T01:32:36.689Z,76.69
2018-03-30T01:33:36.676Z,76.12
2018-03-30T01:34:36.663Z,76.46
2018-03-30T01:35:36.650Z,76.59
2018-03-30T01:36:36.638Z,76.37
2018-03-30T01:37:36.627Z,76.78
2018-03-30T01:38:36.627Z,77.07
2018-03-30T01:39:36.603Z,77.17
2018-03-30T01:40:36.626Z,77.17
2018-03-30T01:41:36.579Z,77.83
2018-03-30T01:42:36.574Z,77.92
2018-03-30T01:43:36.596Z,78.08
2018-03-30T01:44:36.543Z,77.89
2018-03-30T01:45:36.531Z,77.31
2018-03-30T01:46:36.539Z,77.60
2018-03-30T01:47:36.507Z,77.03
2018-03-30T01:48:36.496Z,77.79
2018-03-30T01:49:36.484Z,77.73
2018-03-30T01:50:36.473Z,77.89
2018-03-30T01:51:36.460Z,77.36
2018-03-30T01:52:36.462Z,77.51
2018-03-30T01:53:36.444Z,77.12
2018-03-30T01:54:36.426Z,77.79
2018-03-30T01:55:36.416Z,78.45
2018-03-30T01:56:36.402Z,78.64
2018-03-30T01:57:36.389Z,78.36
2018-03-30T01:58:36.409Z,79.03
2018-03-30T01:59:36.366Z,79.60
2018-03-30T02:00:36.354Z,79.88
2018-03-30T02:01:36.342Z,80.16
2018-03-30T02:02:36.330Z,80.16
2018-03-30T02:03:36.318Z,80.74
2018-03-30T02:04:36.307Z,80.93
2018-03-30T02:05:36.295Z,80.07
2018-03-30T02:06:36.283Z,79.79
2018-03-30T02:07:36.273Z,79.60
2018-03-30T02:08:36.287Z,79.97
2018-03-30T02:09:36.249Z,80.35
2018-03-30T02:10:36.236Z,81.21
2018-03-30T02:11:36.223Z,80.16
2018-03-30T02:12:36.212Z,80.07
2018-03-30T02:13:36.206Z,78.83
2018-03-30T02:14:36.208Z,79.31
2018-03-30T02:15:36.176Z,79.69
2018-03-30T02:16:36.164Z,79.31
2018-03-30T02:17:36.152Z,78.83
2018-03-30T02:18:36.140Z,78.27
2018-03-30T02:19:36.128Z,78.17
2018-03-30T02:20:36.117Z,79.12
2018-03-30T02:21:36.106Z,78.36
2018-03-30T02:22:36.095Z,77.70
2018-03-30T02:23:36.082Z,78.17
2018-03-30T02:24:36.089Z,78.55
2018-03-30T02:25:36.275Z,78.08
2018-03-30T02:26:36.047Z,77.60
2018-03-30T02:27:36.034Z,77.31
2018-03-30T02:28:36.045Z,78.40
2018-03-30T02:29:36.028Z,78.55
2018-03-30T02:30:36.008Z,79.12
2018-03-30T02:31:36.029Z,79.12
2018-03-30T02:32:35.977Z,79.79
2018-03-30T02:33:35.965Z,80.93
2018-03-30T02:34:35.959Z,81.59
2018-03-30T02:35:35.940Z,81.68
2018-03-30T02:36:35.929Z,81.21
2018-03-30T02:37:35.918Z,80.16
2018-03-30T02:38:35.906Z,80.26
2018-03-30T02:39:35.900Z,80.16
2018-03-30T02:40:35.906Z,80.07
2018-03-30T02:41:35.872Z,80.93
2018-03-30T02:42:35.861Z,81.02
2018-03-30T02:43:35.847Z,81.49
2018-03-30T02:44:35.850Z,81.30
2018-03-30T02:45:35.824Z,81.78
2018-03-30T02:46:35.820Z,82.26
2018-03-30T02:47:35.800Z,82.35
2018-03-30T02:48:35.789Z,82.73
2018-03-30T02:49:35.777Z,83.11
2018-03-30T02:50:35.766Z,83.59
2018-03-30T02:51:35.760Z,83.30
2018-03-30T02:52:35.744Z,83.11
2018-03-30T02:53:35.741Z,83.49
2018-03-30T02:54:35.721Z,84.44
2018-03-30T02:55:35.723Z,83.78
2018-03-30T02:56:35.696Z,83.97
2018-03-30T02:57:35.792Z,83.78
2018-03-30T02:58:35.674Z,84.06
2018-03-30T02:59:35.663Z,84.25
2018-03-30T03:00:35.656Z,83.78
2018-03-30T03:01:35.641Z,83.20
2018-03-30T03:02:35.628Z,83.11
2018-03-30T03:03:35.615Z,82.82
2018-03-30T03:04:35.604Z,83.20
2018-03-30T03:05:35.591Z,82.26
2018-03-30T03:06:35.581Z,82.82
2018-03-30T03:07:35.569Z,82.07
2018-03-30T03:08:35.556Z,81.68
2018-03-30T03:09:35.549Z,82.64
2018-03-30T03:10:35.534Z,84.06
2018-03-30T03:11:35.527Z,83.87
2018-03-30T03:12:35.510Z,84.16
2018-03-30T03:13:35.531Z,83.87
2018-03-30T03:14:35.487Z,83.87
2018-03-30T03:15:35.479Z,85.01
2018-03-30T03:16:35.679Z,85.68
2018-03-30T03:17:35.451Z,86.72
2018-03-30T03:18:35.441Z,86.49
2018-03-30T03:19:35.448Z,85.63
2018-03-30T03:20:35.421Z,86.11
2018-03-30T03:21:35.409Z,86.68
2018-03-30T03:22:35.393Z,87.53
2018-03-30T03:23:35.381Z,87.82
2018-03-30T03:24:35.370Z,88.48
2018-03-30T03:25:35.386Z,89.43
2018-03-30T03:26:35.350Z,89.33
2018-03-30T03:27:35.334Z,88.67
2018-03-30T03:28:35.323Z,89.53
2018-03-30T03:29:35.315Z,90.00
2018-03-30T03:30:35.310Z,88.86
2018-03-30T03:31:35.310Z,87.15
2018-03-30T03:32:35.276Z,87.53
2018-03-30T03:33:35.270Z,88.95
2018-03-30T03:34:35.252Z,89.43
2018-03-30T03:35:35.240Z,88.86
2018-03-30T03:36:35.228Z,88.20
2018-03-30T03:37:35.216Z,85.63
2018-03-30T03:38:35.208Z,85.53
2018-03-30T03:39:35.192Z,84.59
2018-03-30T03:40:35.181Z,84.78
2018-03-30T03:41:35.175Z,84.68
2018-03-30T03:42:35.206Z,84.87
2018-03-30T03:43:35.145Z,85.16
2018-03-30T03:44:35.133Z,84.68
2018-03-30T03:45:35.145Z,85.35
2018-03-30T03:46:35.128Z,84.87
2018-03-30T03:47:35.097Z,84.11
2018-03-30T03:48:35.132Z,83.73
2018-03-30T03:49:35.074Z,83.83
2018-03-30T03:50:35.062Z,84.21
2018-03-30T03:51:35.062Z,84.16
2018-03-30T03:52:35.039Z,83.87
2018-03-30T03:53:35.029Z,84.72
2018-03-30T03:54:35.015Z,84.63
2018-03-30T03:55:35.002Z,86.01
2018-03-30T03:56:35.027Z,86.68
2018-03-30T03:57:35.005Z,86.30
2018-03-30T03:58:34.966Z,85.63
2018-03-30T03:59:34.954Z,85.25
2018-03-30T04:00:34.942Z,84.78
2018-03-30T04:01:34.931Z,84.87
2018-03-30T04:02:34.920Z,84.97
2018-03-30T04:03:34.906Z,85.35
2018-03-30T04:04:34.937Z,84.78
2018-03-30T04:05:34.884Z,85.72
2018-03-30T04:06:34.871Z,86.11
2018-03-30T04:07:34.860Z,85.35
2018-03-30T04:08:34.846Z,85.16
2018-03-30T04:09:34.835Z,85.35
2018-03-30T04:10:34.823Z,85.06
2018-03-30T04:11:34.810Z,84.97
2018-03-30T04:12:34.809Z,84.30
2018-03-30T04:13:34.810Z,84.49
2018-03-30T04:14:34.775Z,85.06
2018-03-30T04:15:34.773Z,85.06
2018-03-30T04:16:34.751Z,84.68
2018-03-30T04:17:34.745Z,85.35
2018-03-30T04:18:34.729Z,85.44
2018-03-30T04:19:34.726Z,86.01
2018-03-30T04:20:34.716Z,85.82
2018-03-30T04:21:34.691Z,84.87
2018-03-30T04:22:34.679Z,84.59
2018-03-30T04:23:34.666Z,83.07
2018-03-30T04:24:34.665Z,82.97
2018-03-30T04:25:34.643Z,84.68
2018-03-30T04:26:34.636Z,83.73
2018-03-30T04:27:34.618Z,84.11
2018-03-30T04:28:34.623Z,83.73
2018-03-30T04:29:34.594Z,83.45
2018-03-30T04:30:34.632Z,83.64
2018-03-30T04:31:34.571Z,82.78
2018-03-30T04:32:34.557Z,82.88
2018-03-30T04:33:34.561Z,83.54
2018-03-30T04:34:34.545Z,84.30
2018-03-30T04:35:34.520Z,83.92
2018-03-30T04:36:34.547Z,83.83
2018-03-30T04:37:34.496Z,83.83
2018-03-30T04:38:34.483Z,85.35
2018-03-30T04:39:34.471Z,85.35
2018-03-30T04:40:34.479Z,85.25
2018-03-30T04:41:34.446Z,85.72
2018-03-30T04:42:34.433Z,87.05
2018-03-30T04:43:34.420Z,86.01
2018-03-30T04:44:34.408Z,87.05
2018-03-30T04:45:34.417Z,88.20
2018-03-30T04:46:34.382Z,89.14
2018-03-30T04:47:34.369Z,89.05
2018-03-30T04:48:34.359Z,88.91
2018-03-30T04:49:34.344Z,89.76
2018-03-30T04:50:34.331Z,88.91
2018-03-30T04:51:34.321Z,89.10
2018-03-30T04:52:34.305Z,89.20
2018-03-30T04:53:34.296Z,88.91
2018-03-30T04:54:34.280Z,89.29
2018-03-30T04:55:34.266Z,89.20
2018-03-30T04:56:34.262Z,89.95
2018-03-30T04:57:34.241Z,91.38
2018-03-30T04:58:34.243Z,92.04
2018-03-30T04:59:34.215Z,91.28
2018-03-30T05:00:34.202Z,92.14
2018-03-30T05:01:34.190Z,93.08
2018-03-30T05:02:34.188Z,91.94
2018-03-30T05:03:34.164Z,91.56
2018-03-30T05:04:34.152Z,90.43
2018-03-30T05:05:34.183Z,90.90
2018-03-30T05:06:34.133Z,90.14
2018-03-30T05:07:34.181Z,90.05
2018-03-30T05:08:34.114Z,89.58
2018-03-30T05:09:34.090Z,89.53
2018-03-30T05:10:34.113Z,88.86
2018-03-30T05:11:34.101Z,89.33
2018-03-30T05:12:34.054Z,89.53
2018-03-30T05:13:34.099Z,89.33
2018-03-30T05:14:34.026Z,89.33
2018-03-30T05:15:34.012Z,89.58
2018-03-30T05:16:34.036Z,89.72
2018-03-30T05:17:33.998Z,89.58
2018-03-30T05:18:33.975Z,90.57
2018-03-30T05:19:33.961Z,89.76
2018-03-30T05:20:33.959Z,89.95
2018-03-30T05:21:33.936Z,88.95
2018-03-30T05:22:33.924Z,89.43
2018-03-30T05:23:33.918Z,88.86
2018-03-30T05:24:33.902Z,88.86
2018-03-30T05:25:33.927Z,89.05
2018-03-30T05:26:33.880Z,88.67
2018-03-30T05:27:34.063Z,88.01
2018-03-30T05:28:33.847Z,88.29
2018-03-30T05:29:33.882Z,88.57
2018-03-30T05:30:33.822Z,87.82
2018-03-30T05:31:33.815Z,87.34
2018-03-30T05:32:33.796Z,88.10
2018-03-30T05:33:33.792Z,87.82
2018-03-30T05:34:33.779Z,88.20
2018-03-30T05:35:33.789Z,88.48
2018-03-30T05:36:33.745Z,87.72
2018-03-30T05:37:33.827Z,87.24
2018-03-30T05:38:33.720Z,86.30
2018-03-30T05:39:33.744Z,86.68
2018-03-30T05:40:33.694Z,86.11
2018-03-30T05:41:33.681Z,86.58
2018-03-30T05:42:33.670Z,84.78
2018-03-30T05:43:33.658Z,84.87
2018-03-30T05:44:33.642Z,84.59
2018-03-30T05:45:33.633Z,84.59
2018-03-30T05:46:33.617Z,84.21
2018-03-30T05:47:33.603Z,84.49
2018-03-30T05:48:33.593Z,83.83
2018-03-30T05:49:33.578Z,83.73
2018-03-30T05:50:33.771Z,83.73
2018-03-30T05:51:33.554Z,83.64
2018-03-30T05:52:33.541Z,84.30
2018-03-30T05:54:33.514Z,84.49
2018-03-30T05:55:33.502Z,84.78
2018-03-30T05:56:33.523Z,84.49
2018-03-30T05:57:33.473Z,84.49
2018-03-30T05:58:33.461Z,84.40
2018-03-30T05:59:33.449Z,84.68
2018-03-30T06:00:33.443Z,83.92
2018-03-30T06:01:33.425Z,85.06
2018-03-30T06:02:33.410Z,84.87
2018-03-30T06:03:33.395Z,84.59
2018-03-30T06:04:33.589Z,84.49
2018-03-30T06:05:33.370Z,84.40
2018-03-30T06:06:33.363Z,84.21
2018-03-30T06:08:33.331Z,84.21
2018-03-30T06:09:33.318Z,84.21
2018-03-30T06:10:33.354Z,84.49
2018-03-30T06:11:33.292Z,84.01
2018-03-30T06:12:33.279Z,83.64
2018-03-30T06:13:33.279Z,84.40
2018-03-30T06:14:33.259Z,84.68
2018-03-30T06:15:33.240Z,84.01
2018-03-30T06:16:33.231Z,84.21
2018-03-30T06:17:33.215Z,83.92
2018-03-30T06:18:33.203Z,84.21
2018-03-30T06:19:33.191Z,83.92
2018-03-30T06:20:33.177Z,84.11
2018-03-30T06:21:33.220Z,84.30
2018-03-30T06:22:33.152Z,84.87
2018-03-30T06:23:33.139Z,84.21
2018-03-30T06:24:33.210Z,83.64
2018-03-30T06:25:33.115Z,83.45
2018-03-30T06:26:33.102Z,83.83
2018-03-30T06:27:33.292Z,84.11
2018-03-30T06:28:33.082Z,84.30
2018-03-30T06:29:33.064Z,84.49
2018-03-30T06:30:33.254Z,84.68
2018-03-30T06:31:33.040Z,84.11
2018-03-30T06:32:33.026Z,84.30
2018-03-30T06:34:33.001Z,84.87
2018-03-30T06:35:32.988Z,84.30
2018-03-30T06:36:32.976Z,84.68
2018-03-30T06:37:32.963Z,85.44
2018-03-30T06:38:32.951Z,84.97
2018-03-30T06:39:32.943Z,84.59
2018-03-30T06:40:32.926Z,84.49
2018-03-30T06:41:32.925Z,84.21
2018-03-30T06:42:32.902Z,85.35
2018-03-30T06:43:32.889Z,84.87
2018-03-30T06:44:33.104Z,84.59
2018-03-30T06:45:32.865Z,84.87
2018-03-30T06:46:32.854Z,84.78
2018-03-30T06:47:32.880Z,84.59
2018-03-30T06:48:32.832Z,84.59
2018-03-30T06:49:32.816Z,84.49
2018-03-30T06:50:32.810Z,83.87
2018-03-30T06:51:32.791Z,84.11
2018-03-30T06:52:32.781Z,83.54
2018-03-30T06:53:32.766Z,83.73
2018-03-30T06:54:32.756Z,83.92
2018-03-30T06:55:32.742Z,83.01
2018-03-30T06:56:32.730Z,82.73
2018-03-30T06:57:32.718Z,82.21
2018-03-30T06:58:32.735Z,82.26
2018-03-30T06:59:32.693Z,82.64
2018-03-30T07:00:32.683Z,82.16
2018-03-30T07:02:32.657Z,83.20
2018-03-30T07:03:32.645Z,82.35
2018-03-30T07:04:32.718Z,81.97
2018-03-30T07:05:32.620Z,82.64
2018-03-30T07:06:32.608Z,82.64
2018-03-30T07:07:32.798Z,83.11
2018-03-30T07:08:32.584Z,83.68
2018-03-30T07:09:32.571Z,82.92
2018-03-30T07:10:32.601Z,83.20
2018-03-30T07:11:32.546Z,83.59
2018-03-30T07:12:32.542Z,83.78
2018-03-30T07:13:32.725Z,83.78
2018-03-30T07:14:32.511Z,82.73
2018-03-30T07:15:32.501Z,82.54
2018-03-30T07:16:32.499Z,82.92
2018-03-30T07:17:32.475Z,82.92
2018-03-30T07:18:32.468Z,83.11
2018-03-30T07:19:32.451Z,83.01
2018-03-30T07:20:32.443Z,83.20
2018-03-30T07:21:32.491Z,82.45
2018-03-30T07:22:32.456Z,82.16
2018-03-30T07:23:32.403Z,82.45
2018-03-30T07:24:32.480Z,82.16
2018-03-30T07:25:32.381Z,82.16
2018-03-30T07:26:32.372Z,83.01
2018-03-30T07:27:32.560Z,83.11
2018-03-30T07:28:32.345Z,82.64
2018-03-30T07:29:32.334Z,81.97
2018-03-30T07:30:32.351Z,81.49
2018-03-30T07:31:32.311Z,81.59
2018-03-30T07:32:32.299Z,82.45
2018-03-30T07:33:32.288Z,81.30
2018-03-30T07:34:32.277Z,82.45
2018-03-30T07:35:32.265Z,82.29
2018-03-30T07:36:32.254Z,82.10
2018-03-30T07:37:32.245Z,80.64
2018-03-30T07:38:32.233Z,82.07
2018-03-30T07:39:32.220Z,81.25
2018-03-30T07:40:32.210Z,81.06
2018-03-30T07:41:32.292Z,80.87
2018-03-30T07:42:32.188Z,80.40
2018-03-30T07:43:32.177Z,80.30
2018-03-30T07:44:32.219Z,79.83
2018-03-30T07:45:32.156Z,80.11
2018-03-30T07:46:32.146Z,80.34
2018-03-30T07:47:32.338Z,79.58
2018-03-30T07:48:32.126Z,78.44
2018-03-30T07:49:32.118Z,76.67
2018-03-30T07:50:32.108Z,76.48
2018-03-30T07:51:32.101Z,76.44
2018-03-30T07:52:32.091Z,76.35
2018-03-30T07:53:32.081Z,76.06
2018-03-30T07:54:32.072Z,76.16
2018-03-30T07:55:32.277Z,76.92
2018-03-30T07:56:32.054Z,77.43
2018-03-30T07:57:32.045Z,77.34
2018-03-30T07:58:32.126Z,76.57
2018-03-30T07:59:32.026Z,74.90
2018-03-30T08:00:32.019Z,74.62
2018-03-30T08:01:32.058Z,74.94
2018-03-30T08:02:32.006Z,72.46
2018-03-30T08:03:32.037Z,70.75
2018-03-30T08:04:31.991Z,70.37
2018-03-30T08:05:31.986Z,70.47
2018-03-30T08:06:32.060Z,71.36
2018-03-30T08:07:31.974Z,69.45
2018-03-30T08:08:31.968Z,68.30
2018-03-30T08:09:32.011Z,69.17
2018-03-30T08:10:31.959Z,68.98
2018-03-30T08:11:31.952Z,67.86
2018-03-30T08:12:31.949Z,68.44
2018-03-30T08:13:31.946Z,67.20
2018-03-30T08:14:31.941Z,67.48
2018-03-30T08:15:31.936Z,67.58
2018-03-30T08:16:31.933Z,68.28
2018-03-30T08:17:32.013Z,65.99
2018-03-30T08:18:31.927Z,65.89
2018-03-30T08:19:31.924Z,65.26
2018-03-30T08:20:31.957Z,65.36
2018-03-30T08:21:31.920Z,64.15
2018-03-30T08:22:31.982Z,62.78
2018-03-30T08:23:31.916Z,62.40
2018-03-30T08:24:31.918Z,62.97
2018-03-30T08:25:31.913Z,63.76
2018-03-30T08:26:31.912Z,62.71
2018-03-30T08:27:31.911Z,63.39
2018-03-30T08:28:32.009Z,63.29
2018-03-30T08:29:31.909Z,61.10
2018-03-30T08:30:31.912Z,60.90
2018-03-30T08:31:32.126Z,60.90
2018-03-30T08:32:31.906Z,61.76
2018-03-30T08:33:31.905Z,63.39
2018-03-30T08:34:31.904Z,61.29
2018-03-30T08:35:31.902Z,62.34
2018-03-30T08:36:31.900Z,62.62
2018-03-30T08:37:31.901Z,61.19
2018-03-30T08:38:31.901Z,61.47
2018-03-30T08:39:31.986Z,61.95
2018-03-30T08:40:31.897Z,63.20
2018-03-30T08:41:31.896Z,62.84
2018-03-30T08:42:31.935Z,61.60
2018-03-30T08:43:31.898Z,60.07
2018-03-30T08:44:31.896Z,59.22
2018-03-30T08:45:31.893Z,59.98
2018-03-30T08:46:31.893Z,60.93
2018-03-30T08:47:31.900Z,62.27
2018-03-30T08:48:31.891Z,61.35
2018-03-30T08:49:31.891Z,60.58
2018-03-30T08:50:32.095Z,57.71
2018-03-30T08:51:31.895Z,58.48
2018-03-30T08:52:31.890Z,57.81
2018-03-30T08:53:31.897Z,56.47
2018-03-30T08:54:31.893Z,56.92
2018-03-30T08:55:31.889Z,59.53
2018-03-30T08:56:31.888Z,58.26
2018-03-30T08:57:31.888Z,57.87
2018-03-30T08:58:32.122Z,57.87
2018-03-30T08:59:31.887Z,56.73
2018-03-30T09:00:31.886Z,58.54
2018-03-30T09:01:32.088Z,58.64
2018-03-30T09:02:31.885Z,61.32
2018-03-30T09:03:31.883Z,61.54
2018-03-30T09:04:31.886Z,60.96
2018-03-30T09:05:31.954Z,60.01
2018-03-30T09:06:31.881Z,59.05
2018-03-30T09:07:31.881Z,61.16
2018-03-30T09:08:31.875Z,60.17
2018-03-30T09:09:31.876Z,59.69
2018-03-30T09:10:31.872Z,60.49
2018-03-30T09:11:31.871Z,58.67
2018-03-30T09:12:31.869Z,58.58
2018-03-30T09:13:31.941Z,57.04
2018-03-30T09:14:31.868Z,57.81
2018-03-30T09:15:31.867Z,57.84
2018-03-30T09:16:31.875Z,57.36
2018-03-30T09:17:31.866Z,55.26
2018-03-30T09:18:31.869Z,54.49
2018-03-30T09:19:31.866Z,54.90
2018-03-30T09:20:31.873Z,55.67
2018-03-30T09:21:31.869Z,56.37
2018-03-30T09:22:31.875Z,55.22
2018-03-30T09:23:31.875Z,53.88
2018-03-30T09:24:31.972Z,54.26
2018-03-30T09:25:31.874Z,53.40
2018-03-30T09:26:31.878Z,56.49
2018-03-30T09:27:31.880Z,54.77
2018-03-30T09:28:31.879Z,54.48
2018-03-30T09:29:31.886Z,54.70
2018-03-30T09:30:31.882Z,52.20
2018-03-30T09:31:31.884Z,49.40
2018-03-30T09:32:31.939Z,50.43
2018-03-30T09:33:31.887Z,52.73
2018-03-30T09:34:31.891Z,53.30
2018-03-30T09:35:31.932Z,52.92
2018-03-30T09:36:31.891Z,54.55
2018-03-30T09:37:31.891Z,53.69
2018-03-30T09:38:31.896Z,52.73
2018-03-30T09:39:31.892Z,50.52
2018-03-30T09:40:31.892Z,50.62
2018-03-30T09:41:31.897Z,50.62
2018-03-30T09:42:31.894Z,49.76
2018-03-30T09:43:31.972Z,49.35
2018-03-30T09:44:31.894Z,47.63
2018-03-30T09:45:31.895Z,48.68
2018-03-30T09:46:31.894Z,47.61
2018-03-30T09:47:31.894Z,48.28
2018-03-30T09:48:31.893Z,49.64
2018-03-30T09:49:31.893Z,48.47
2018-03-30T09:50:31.893Z,47.80
2018-03-30T09:51:31.891Z,46.37
2018-03-30T09:52:31.890Z,46.56
2018-03-30T09:53:31.889Z,47.89
2018-03-30T09:54:31.977Z,48.64
2018-03-30T09:55:31.887Z,47.30
2018-03-30T09:56:31.882Z,47.49
2018-03-30T09:57:31.879Z,48.33
2018-03-30T09:58:31.877Z,49.57
2018-03-30T09:59:31.874Z,48.71
2018-03-30T10:00:31.869Z,47.66
2018-03-30T10:01:31.866Z,49.07
2018-03-30T10:02:32.066Z,49.16
2018-03-30T10:03:31.858Z,49.16
2018-03-30T10:04:32.057Z,49.35
2018-03-30T10:05:31.851Z,49.26
2018-03-30T10:06:31.850Z,48.90
2018-03-30T10:07:31.885Z,49.38
2018-03-30T10:08:31.839Z,49.76
2018-03-30T10:09:31.830Z,49.66
2018-03-30T10:10:31.832Z,50.16
2018-03-30T10:11:31.821Z,50.57
2018-03-30T10:12:31.821Z,50.50
2018-03-30T10:13:31.815Z,50.41
2018-03-30T10:14:31.815Z,54.55
2018-03-30T10:15:31.812Z,54.48
2018-03-30T10:16:31.810Z,53.23
2018-03-30T10:17:31.813Z,52.69
2018-03-30T10:18:31.909Z,51.92
2018-03-30T10:19:31.807Z,50.29
2018-03-30T10:20:31.808Z,49.81
2018-03-30T10:21:31.857Z,50.96
2018-03-30T10:22:31.811Z,50.60
2018-03-30T10:23:31.813Z,48.95
2018-03-30T10:24:31.852Z,49.62
2018-03-30T10:25:31.818Z,50.48
2018-03-30T10:26:31.819Z,49.33
2018-03-30T10:27:31.821Z,49.50
2018-03-30T10:28:31.823Z,48.93
2018-03-30T10:29:31.904Z,51.73
2018-03-30T10:30:31.829Z,49.43
2018-03-30T10:31:31.833Z,49.45
2018-03-30T10:32:31.894Z,50.89
2018-03-30T10:33:31.842Z,50.53
2018-03-30T10:34:31.842Z,50.24
2018-03-30T10:35:31.849Z,49.48
2018-03-30T10:36:31.854Z,46.62
2018-03-30T10:37:31.857Z,49.79
2018-03-30T10:38:31.861Z,51.71
2018-03-30T10:39:31.866Z,49.60
2018-03-30T10:40:31.926Z,48.76
2018-03-30T10:41:31.877Z,49.05
2018-03-30T10:42:31.884Z,47.41
2018-03-30T10:43:31.968Z,47.51
2018-03-30T10:44:31.894Z,45.68
2018-03-30T10:45:31.906Z,43.27
2018-03-30T10:46:31.908Z,44.61
2018-03-30T10:47:31.915Z,44.68
2018-03-30T10:48:32.132Z,42.67
2018-03-30T10:49:31.924Z,41.83
2018-03-30T10:50:31.929Z,42.19
2018-03-30T10:51:31.982Z,45.16
2018-03-30T10:52:31.939Z,42.57
2018-03-30T10:53:31.945Z,42.29
2018-03-30T10:54:31.962Z,44.40
2018-03-30T10:55:31.956Z,43.74
2018-03-30T10:56:31.962Z,42.30
2018-03-30T10:57:31.969Z,41.16
2018-03-30T10:58:31.978Z,40.79
2018-03-30T10:59:32.188Z,39.62
2018-03-30T11:00:31.985Z,36.84
2018-03-30T11:01:31.993Z,37.49
2018-03-30T11:02:32.045Z,39.60
2018-03-30T11:03:32.002Z,36.63
2018-03-30T11:04:32.012Z,36.42
2018-03-30T11:05:32.030Z,37.66
2018-03-30T11:06:32.017Z,40.56
2018-03-30T11:07:32.021Z,39.04
2018-03-30T11:08:32.027Z,38.56
2018-03-30T11:09:32.037Z,38.20
2018-03-30T11:10:32.100Z,39.83
2018-03-30T11:11:32.041Z,38.47
2018-03-30T11:12:32.045Z,40.87
2018-03-30T11:13:32.076Z,40.27
2018-03-30T11:14:32.058Z,41.33
2018-03-30T11:15:32.060Z,39.98
2018-03-30T11:16:32.063Z,42.57
2018-03-30T11:17:32.066Z,42.19
2018-03-30T11:18:32.161Z,40.37
2018-03-30T11:19:32.073Z,39.60
2018-03-30T11:20:32.078Z,39.60
2018-03-30T11:21:32.116Z,40.56
2018-03-30T11:22:32.085Z,41.04
2018-03-30T11:23:32.088Z,43.17
2018-03-30T11:24:32.113Z,40.00
2018-03-30T11:25:32.099Z,40.10
2018-03-30T11:26:32.101Z,40.12
2018-03-30T11:27:32.105Z,39.73
2018-03-30T11:28:32.108Z,38.18
2018-03-30T11:30:32.116Z,38.18
2018-03-30T11:31:32.121Z,37.40
2018-03-30T11:32:32.327Z,37.57
2018-03-30T11:33:32.127Z,38.91
2018-03-30T11:34:32.129Z,41.78
2018-03-30T11:35:32.140Z,41.50
2018-03-30T11:36:32.134Z,42.47
2018-03-30T11:37:32.343Z,40.75
2018-03-30T11:38:32.141Z,39.70
2018-03-30T11:39:32.143Z,40.66
2018-03-30T11:40:32.186Z,39.68
2018-03-30T11:41:32.150Z,39.56
2018-03-30T11:42:32.153Z,41.46
2018-03-30T11:43:32.150Z,42.99
2018-03-30T11:44:32.154Z,43.10
2018-03-30T11:45:32.154Z,43.39
2018-03-30T11:46:32.156Z,42.34
2018-03-30T11:47:32.155Z,42.13
2018-03-30T11:48:32.255Z,43.37
2018-03-30T11:49:32.159Z,44.90
2018-03-30T11:50:32.192Z,43.27
2018-03-30T11:51:32.205Z,42.49
2018-03-30T11:52:32.157Z,43.35
2018-03-30T11:53:32.157Z,43.73
2018-03-30T11:54:32.156Z,43.26
2018-03-30T11:55:32.156Z,43.63
2018-03-30T11:56:32.153Z,44.43
2018-03-30T11:57:32.154Z,46.53
2018-03-30T11:58:32.160Z,47.78
2018-03-30T12:00:32.148Z,49.24
2018-03-30T12:01:32.148Z,47.99
2018-03-30T12:02:32.202Z,48.57
2018-03-30T12:03:32.161Z,48.95
2018-03-30T12:04:32.142Z,48.38
2018-03-30T12:05:32.144Z,49.91
2018-03-30T12:06:32.140Z,48.09
2018-03-30T12:07:32.140Z,49.05
2018-03-30T12:08:32.216Z,48.59
2018-03-30T12:09:32.136Z,49.05
2018-03-30T12:10:32.136Z,47.51
2018-03-30T12:11:32.177Z,47.89
2018-03-30T12:12:32.131Z,47.68
2018-03-30T12:13:32.127Z,49.21
2018-03-30T12:14:32.149Z,50.46
2018-03-30T12:15:32.124Z,49.21
2018-03-30T12:16:32.125Z,48.93
2018-03-30T12:17:32.117Z,48.23
2018-03-30T12:18:32.115Z,49.64
2018-03-30T12:19:32.133Z,50.70
2018-03-30T12:20:32.109Z,51.27
2018-03-30T12:21:32.106Z,51.20
2018-03-30T12:22:32.310Z,51.77
2018-03-30T12:23:32.099Z,51.75
2018-03-30T12:24:32.098Z,52.42
2018-03-30T12:25:32.135Z,52.25
2018-03-30T12:26:32.090Z,51.87
2018-03-30T12:27:32.091Z,51.77
2018-03-30T12:28:32.084Z,52.83
2018-03-30T12:29:32.080Z,53.04
2018-03-30T12:30:32.077Z,51.70
2018-03-30T12:31:32.075Z,51.89
2018-03-30T12:32:32.075Z,50.74
2018-03-30T12:33:32.145Z,50.93
2018-03-30T12:34:32.066Z,50.93
2018-03-30T12:35:32.060Z,50.56
2018-03-30T12:36:32.100Z,49.11
2018-03-30T12:37:32.054Z,48.93
2018-03-30T12:38:32.051Z,49.40
2018-03-30T12:39:32.052Z,49.98
2018-03-30T12:40:32.045Z,49.79
2018-03-30T12:41:32.044Z,50.26
2018-03-30T12:42:32.040Z,49.40
2018-03-30T12:43:32.037Z,48.73
2018-03-30T12:44:32.237Z,49.40
2018-03-30T12:45:32.031Z,48.83
2018-03-30T12:46:32.037Z,50.05
2018-03-30T12:47:32.227Z,49.86
2018-03-30T12:48:32.021Z,51.58
2018-03-30T12:49:32.018Z,52.34
2018-03-30T12:50:32.028Z,52.25
2018-03-30T12:51:32.012Z,52.83
2018-03-30T12:52:32.008Z,52.09
2018-03-30T12:53:32.005Z,50.81
2018-03-30T12:54:32.002Z,51.48
2018-03-30T12:55:32.117Z,52.25
2018-03-30T12:56:31.994Z,52.92
2018-03-30T12:57:31.993Z,53.30
2018-03-30T12:59:31.993Z,53.04